sensor_id;sensor_type;location;lat;lon;timestamp;temperature;humidity
8188;DHT22;4135;49.184;9.722;2023-02-28T00:01:31;23.30;40.80
8188;DHT22;4135;49.184;9.722;2023-02-28T00:04:01;23.30;40.90
8188;DHT22;4135;49.184;9.722;2023-02-28T00:06:31;23.30;40.90
8188;DHT22;4135;49.184;9.722;2023-02-28T00:09:01;23.30;40.90
8188;DHT22;4135;49.184;9.722;2023-02-28T00:11:30;23.20;40.90
8188;DHT22;4135;49.184;9.722;2023-02-28T00:14:00;23.20;40.90
8188;DHT22;4135;49.184;9.722;2023-02-28T00:16:29;23.20;40.90
8188;DHT22;4135;49.184;9.722;2023-02-28T00:18:59;23.20;40.90
8188;DHT22;4135;49.184;9.722;2023-02-28T00:21:28;23.20;41.00
8188;DHT22;4135;49.184;9.722;2023-02-28T00:23:58;23.10;40.90
8188;DHT22;4135;49.184;9.722;2023-02-28T00:26:27;23.10;40.90
8188;DHT22;4135;49.184;9.722;2023-02-28T00:28:57;23.10;41.00
8188;DHT22;4135;49.184;9.722;2023-02-28T00:31:26;23.10;41.00
8188;DHT22;4135;49.184;9.722;2023-02-28T00:33:56;23.10;41.00
8188;DHT22;4135;49.184;9.722;2023-02-28T00:36:25;23.00;41.50
8188;DHT22;4135;49.184;9.722;2023-02-28T00:38:55;23.00;40.90
8188;DHT22;4135;49.184;9.722;2023-02-28T00:41:24;23.00;41.00
8188;DHT22;4135;49.184;9.722;2023-02-28T00:43:54;23.00;40.90
8188;DHT22;4135;49.184;9.722;2023-02-28T00:46:23;23.00;41.00
8188;DHT22;4135;49.184;9.722;2023-02-28T00:48:53;23.00;41.00
8188;DHT22;4135;49.184;9.722;2023-02-28T00:51:22;22.90;41.00
8188;DHT22;4135;49.184;9.722;2023-02-28T00:53:52;22.90;41.00
8188;DHT22;4135;49.184;9.722;2023-02-28T00:56:21;22.90;41.00
8188;DHT22;4135;49.184;9.722;2023-02-28T00:58:51;22.90;41.00
8188;DHT22;4135;49.184;9.722;2023-02-28T01:01:20;22.90;41.00
8188;DHT22;4135;49.184;9.722;2023-02-28T01:03:50;22.90;41.00
8188;DHT22;4135;49.184;9.722;2023-02-28T01:06:19;22.90;41.10
8188;DHT22;4135;49.184;9.722;2023-02-28T01:08:49;22.80;41.00
8188;DHT22;4135;49.184;9.722;2023-02-28T01:11:19;22.80;41.60
8188;DHT22;4135;49.184;9.722;2023-02-28T01:13:48;22.80;41.60
8188;DHT22;4135;49.184;9.722;2023-02-28T01:16:18;22.80;41.00
8188;DHT22;4135;49.184;9.722;2023-02-28T01:18:47;22.80;41.00
8188;DHT22;4135;49.184;9.722;2023-02-28T01:21:19;22.80;41.00
8188;DHT22;4135;49.184;9.722;2023-02-28T01:23:49;22.70;41.00
8188;DHT22;4135;49.184;9.722;2023-02-28T01:26:21;22.70;41.00
8188;DHT22;4135;49.184;9.722;2023-02-28T01:28:52;22.80;41.20
8188;DHT22;4135;49.184;9.722;2023-02-28T01:31:22;22.70;41.10
8188;DHT22;4135;49.184;9.722;2023-02-28T01:33:52;22.70;41.10
8188;DHT22;4135;49.184;9.722;2023-02-28T01:36:23;22.70;41.10
8188;DHT22;4135;49.184;9.722;2023-02-28T01:38:54;22.70;41.20
8188;DHT22;4135;49.184;9.722;2023-02-28T01:41:27;22.60;41.10
8188;DHT22;4135;49.184;9.722;2023-02-28T01:44:53;22.60;41.10
8188;DHT22;4135;49.184;9.722;2023-02-28T01:46:56;22.60;41.20
8188;DHT22;4135;49.184;9.722;2023-02-28T01:49:25;22.60;41.20
8188;DHT22;4135;49.184;9.722;2023-02-28T01:51:56;22.60;41.20
8188;DHT22;4135;49.184;9.722;2023-02-28T01:54:29;22.60;41.20
8188;DHT22;4135;49.184;9.722;2023-02-28T01:57:15;22.50;41.20
8188;DHT22;4135;49.184;9.722;2023-02-28T02:00:13;22.50;41.20
8188;DHT22;4135;49.184;9.722;2023-02-28T02:02:47;22.50;41.20
8188;DHT22;4135;49.184;9.722;2023-02-28T02:05:23;22.50;41.20
8188;DHT22;4135;49.184;9.722;2023-02-28T02:08:01;22.50;41.20
8188;DHT22;4135;49.184;9.722;2023-02-28T02:10:39;22.40;41.10
8188;DHT22;4135;49.184;9.722;2023-02-28T02:19:26;22.40;41.10
8188;DHT22;4135;49.184;9.722;2023-02-28T02:25:18;22.40;41.20
8188;DHT22;4135;49.184;9.722;2023-02-28T02:28:16;22.40;41.20
8188;DHT22;4135;49.184;9.722;2023-02-28T02:36:35;22.30;41.10
8188;DHT22;4135;49.184;9.722;2023-02-28T02:39:08;22.30;41.20
8188;DHT22;4135;49.184;9.722;2023-02-28T02:41:52;22.30;41.10
8188;DHT22;4135;49.184;9.722;2023-02-28T02:44:46;22.40;41.20
8188;DHT22;4135;49.184;9.722;2023-02-28T02:47:20;22.30;41.20
8188;DHT22;4135;49.184;9.722;2023-02-28T02:49:54;22.30;41.20
8188;DHT22;4135;49.184;9.722;2023-02-28T02:52:30;22.30;41.20
8188;DHT22;4135;49.184;9.722;2023-02-28T02:55:02;22.30;41.30
8188;DHT22;4135;49.184;9.722;2023-02-28T02:57:40;22.30;41.80
8188;DHT22;4135;49.184;9.722;2023-02-28T03:00:12;22.20;41.20
8188;DHT22;4135;49.184;9.722;2023-02-28T03:02:44;22.30;41.30
8188;DHT22;4135;49.184;9.722;2023-02-28T03:05:20;22.20;41.20
8188;DHT22;4135;49.184;9.722;2023-02-28T03:07:50;22.20;41.20
8188;DHT22;4135;49.184;9.722;2023-02-28T03:10:40;22.20;41.30
8188;DHT22;4135;49.184;9.722;2023-02-28T03:19:06;22.10;41.20
8188;DHT22;4135;49.184;9.722;2023-02-28T03:21:58;22.10;41.20
8188;DHT22;4135;49.184;9.722;2023-02-28T03:24:50;22.20;41.30
8188;DHT22;4135;49.184;9.722;2023-02-28T03:30:24;22.10;41.20
8188;DHT22;4135;49.184;9.722;2023-02-28T03:33:13;21.80;41.00
8188;DHT22;4135;49.184;9.722;2023-02-28T03:35:56;22.10;41.20
8188;DHT22;4135;49.184;9.722;2023-02-28T03:38:35;22.10;41.20
8188;DHT22;4135;49.184;9.722;2023-02-28T03:41:14;22.10;41.30
8188;DHT22;4135;49.184;9.722;2023-02-28T03:43:51;22.10;41.20
8188;DHT22;4135;49.184;9.722;2023-02-28T03:46:25;22.10;41.30
8188;DHT22;4135;49.184;9.722;2023-02-28T03:49:03;22.10;41.30
8188;DHT22;4135;49.184;9.722;2023-02-28T03:51:36;22.10;41.30
8188;DHT22;4135;49.184;9.722;2023-02-28T03:54:11;22.00;41.20
8188;DHT22;4135;49.184;9.722;2023-02-28T03:56:48;22.00;41.20
8188;DHT22;4135;49.184;9.722;2023-02-28T03:59:26;22.00;41.20
8188;DHT22;4135;49.184;9.722;2023-02-28T04:01:57;22.00;41.20
8188;DHT22;4135;49.184;9.722;2023-02-28T04:04:28;22.00;41.20
8188;DHT22;4135;49.184;9.722;2023-02-28T04:07:05;22.00;41.20
8188;DHT22;4135;49.184;9.722;2023-02-28T04:09:35;22.00;41.30
8188;DHT22;4135;49.184;9.722;2023-02-28T04:12:05;22.00;41.30
8188;DHT22;4135;49.184;9.722;2023-02-28T04:14:34;22.00;41.30
8188;DHT22;4135;49.184;9.722;2023-02-28T04:17:04;22.00;41.30
8188;DHT22;4135;49.184;9.722;2023-02-28T04:19:33;21.90;41.20
8188;DHT22;4135;49.184;9.722;2023-02-28T04:22:03;22.00;41.40
8188;DHT22;4135;49.184;9.722;2023-02-28T04:24:32;21.90;41.20
8188;DHT22;4135;49.184;9.722;2023-02-28T04:27:02;21.90;41.20
8188;DHT22;4135;49.184;9.722;2023-02-28T04:29:32;21.90;41.20
8188;DHT22;4135;49.184;9.722;2023-02-28T04:32:02;21.90;41.20
8188;DHT22;4135;49.184;9.722;2023-02-28T04:34:32;21.90;41.20
8188;DHT22;4135;49.184;9.722;2023-02-28T04:37:02;21.90;41.30
8188;DHT22;4135;49.184;9.722;2023-02-28T04:39:35;21.90;41.30
8188;DHT22;4135;49.184;9.722;2023-02-28T04:42:05;21.90;41.30
8188;DHT22;4135;49.184;9.722;2023-02-28T04:44:35;21.90;41.20
8188;DHT22;4135;49.184;9.722;2023-02-28T04:47:04;21.80;41.20
8188;DHT22;4135;49.184;9.722;2023-02-28T04:49:34;21.90;41.20
8188;DHT22;4135;49.184;9.722;2023-02-28T04:52:04;21.90;41.20
8188;DHT22;4135;49.184;9.722;2023-02-28T04:54:33;21.80;41.20
8188;DHT22;4135;49.184;9.722;2023-02-28T04:57:03;21.80;41.20
8188;DHT22;4135;49.184;9.722;2023-02-28T04:59:33;21.80;41.20
8188;DHT22;4135;49.184;9.722;2023-02-28T05:02:03;21.80;41.20
8188;DHT22;4135;49.184;9.722;2023-02-28T05:04:36;21.80;41.20
8188;DHT22;4135;49.184;9.722;2023-02-28T05:07:05;21.80;41.20
8188;DHT22;4135;49.184;9.722;2023-02-28T05:09:35;21.80;41.20
8188;DHT22;4135;49.184;9.722;2023-02-28T05:12:05;21.80;41.30
8188;DHT22;4135;49.184;9.722;2023-02-28T05:14:34;21.80;41.30
8188;DHT22;4135;49.184;9.722;2023-02-28T05:17:04;21.80;41.30
8188;DHT22;4135;49.184;9.722;2023-02-28T05:19:33;21.80;41.30
8188;DHT22;4135;49.184;9.722;2023-02-28T05:22:03;21.70;41.20
8188;DHT22;4135;49.184;9.722;2023-02-28T05:24:32;21.80;41.20
8188;DHT22;4135;49.184;9.722;2023-02-28T05:27:02;21.80;41.20
8188;DHT22;4135;49.184;9.722;2023-02-28T05:29:32;21.80;41.20
8188;DHT22;4135;49.184;9.722;2023-02-28T05:32:02;21.80;41.20
8188;DHT22;4135;49.184;9.722;2023-02-28T05:34:31;21.80;41.30
8188;DHT22;4135;49.184;9.722;2023-02-28T05:37:01;21.80;41.40
8188;DHT22;4135;49.184;9.722;2023-02-28T05:39:30;21.80;41.50
8188;DHT22;4135;49.184;9.722;2023-02-28T05:42:00;21.70;41.40
8188;DHT22;4135;49.184;9.722;2023-02-28T05:44:30;21.70;41.40
8188;DHT22;4135;49.184;9.722;2023-02-28T05:46:59;21.70;41.40
8188;DHT22;4135;49.184;9.722;2023-02-28T05:49:29;21.70;41.50
8188;DHT22;4135;49.184;9.722;2023-02-28T05:51:58;21.80;41.60
8188;DHT22;4135;49.184;9.722;2023-02-28T05:54:28;21.70;41.50
8188;DHT22;4135;49.184;9.722;2023-02-28T05:56:57;21.70;41.40
8188;DHT22;4135;49.184;9.722;2023-02-28T05:59:27;21.70;41.40
8188;DHT22;4135;49.184;9.722;2023-02-28T06:01:56;21.70;41.40
8188;DHT22;4135;49.184;9.722;2023-02-28T06:04:26;21.70;41.40
8188;DHT22;4135;49.184;9.722;2023-02-28T06:06:55;21.70;41.30
8188;DHT22;4135;49.184;9.722;2023-02-28T06:09:26;21.70;41.20
8188;DHT22;4135;49.184;9.722;2023-02-28T06:12:00;21.70;41.20
8188;DHT22;4135;49.184;9.722;2023-02-28T06:14:33;21.70;41.20
8188;DHT22;4135;49.184;9.722;2023-02-28T06:17:03;21.70;41.20
8188;DHT22;4135;49.184;9.722;2023-02-28T06:19:33;21.70;41.20
8188;DHT22;4135;49.184;9.722;2023-02-28T06:22:03;21.70;41.20
8188;DHT22;4135;49.184;9.722;2023-02-28T06:24:32;21.70;41.30
8188;DHT22;4135;49.184;9.722;2023-02-28T06:27:02;21.70;41.40
8188;DHT22;4135;49.184;9.722;2023-02-28T06:29:35;21.70;42.00
8188;DHT22;4135;49.184;9.722;2023-02-28T06:32:05;21.70;41.50
8188;DHT22;4135;49.184;9.722;2023-02-28T06:34:34;21.70;41.50
8188;DHT22;4135;49.184;9.722;2023-02-28T06:37:04;21.70;41.50
8188;DHT22;4135;49.184;9.722;2023-02-28T06:39:34;21.70;41.60
8188;DHT22;4135;49.184;9.722;2023-02-28T06:42:03;21.70;41.60
8188;DHT22;4135;49.184;9.722;2023-02-28T06:44:33;21.70;41.70
8188;DHT22;4135;49.184;9.722;2023-02-28T06:47:05;21.70;41.70
8188;DHT22;4135;49.184;9.722;2023-02-28T06:49:35;21.70;41.90
8188;DHT22;4135;49.184;9.722;2023-02-28T06:52:05;21.70;41.90
8188;DHT22;4135;49.184;9.722;2023-02-28T06:54:36;21.70;41.90
8188;DHT22;4135;49.184;9.722;2023-02-28T06:57:06;21.80;42.00
8188;DHT22;4135;49.184;9.722;2023-02-28T06:59:36;21.80;42.00
8188;DHT22;4135;49.184;9.722;2023-02-28T07:02:05;21.70;41.90
8188;DHT22;4135;49.184;9.722;2023-02-28T07:04:36;21.80;42.00
8188;DHT22;4135;49.184;9.722;2023-02-28T07:07:05;21.80;42.00
8188;DHT22;4135;49.184;9.722;2023-02-28T07:09:35;21.80;42.00
8188;DHT22;4135;49.184;9.722;2023-02-28T07:12:04;21.80;42.00
8188;DHT22;4135;49.184;9.722;2023-02-28T07:14:36;21.80;42.00
8188;DHT22;4135;49.184;9.722;2023-02-28T07:17:10;21.80;42.00
8188;DHT22;4135;49.184;9.722;2023-02-28T07:19:41;21.80;42.00
8188;DHT22;4135;49.184;9.722;2023-02-28T07:22:10;21.80;42.00
8188;DHT22;4135;49.184;9.722;2023-02-28T07:24:40;21.70;42.00
8188;DHT22;4135;49.184;9.722;2023-02-28T07:27:09;21.70;42.00
8188;DHT22;4135;49.184;9.722;2023-02-28T07:29:39;21.80;42.10
8188;DHT22;4135;49.184;9.722;2023-02-28T07:32:08;21.80;42.10
8188;DHT22;4135;49.184;9.722;2023-02-28T07:34:38;21.80;42.10
8188;DHT22;4135;49.184;9.722;2023-02-28T07:37:07;21.80;42.10
8188;DHT22;4135;49.184;9.722;2023-02-28T07:39:37;21.80;42.10
8188;DHT22;4135;49.184;9.722;2023-02-28T07:42:07;21.90;42.20
8188;DHT22;4135;49.184;9.722;2023-02-28T07:44:39;21.90;42.20
8188;DHT22;4135;49.184;9.722;2023-02-28T07:47:10;22.00;42.30
8188;DHT22;4135;49.184;9.722;2023-02-28T07:49:39;21.90;42.10
8188;DHT22;4135;49.184;9.722;2023-02-28T07:52:09;21.90;42.20
8188;DHT22;4135;49.184;9.722;2023-02-28T07:54:38;21.90;42.20
8188;DHT22;4135;49.184;9.722;2023-02-28T07:57:08;21.90;42.20
8188;DHT22;4135;49.184;9.722;2023-02-28T07:59:37;21.80;42.10
8188;DHT22;4135;49.184;9.722;2023-02-28T08:02:09;21.90;42.20
8188;DHT22;4135;49.184;9.722;2023-02-28T08:04:40;21.80;42.20
8188;DHT22;4135;49.184;9.722;2023-02-28T08:07:12;21.80;42.10
8188;DHT22;4135;49.184;9.722;2023-02-28T08:09:42;21.90;42.20
8188;DHT22;4135;49.184;9.722;2023-02-28T08:12:12;21.90;42.20
8188;DHT22;4135;49.184;9.722;2023-02-28T08:14:41;21.80;42.20
8188;DHT22;4135;49.184;9.722;2023-02-28T08:17:11;21.90;42.30
8188;DHT22;4135;49.184;9.722;2023-02-28T08:19:41;21.90;42.30
8188;DHT22;4135;49.184;9.722;2023-02-28T08:22:10;21.90;42.30
8188;DHT22;4135;49.184;9.722;2023-02-28T08:24:41;21.90;42.40
8188;DHT22;4135;49.184;9.722;2023-02-28T08:27:11;21.90;42.40
8188;DHT22;4135;49.184;9.722;2023-02-28T08:29:41;22.00;42.40
8188;DHT22;4135;49.184;9.722;2023-02-28T08:32:11;22.00;42.40
8188;DHT22;4135;49.184;9.722;2023-02-28T08:34:40;22.20;42.40
8188;DHT22;4135;49.184;9.722;2023-02-28T08:37:10;22.30;42.40
8188;DHT22;4135;49.184;9.722;2023-02-28T08:39:40;22.30;42.30
8188;DHT22;4135;49.184;9.722;2023-02-28T08:42:10;22.30;42.20
8188;DHT22;4135;49.184;9.722;2023-02-28T08:44:39;22.40;42.20
8188;DHT22;4135;49.184;9.722;2023-02-28T08:47:09;22.40;42.10
8188;DHT22;4135;49.184;9.722;2023-02-28T08:49:39;22.40;42.10
8188;DHT22;4135;49.184;9.722;2023-02-28T08:52:08;22.40;42.10
8188;DHT22;4135;49.184;9.722;2023-02-28T08:54:38;22.50;42.20
8188;DHT22;4135;49.184;9.722;2023-02-28T08:57:07;22.50;42.10
8188;DHT22;4135;49.184;9.722;2023-02-28T08:59:37;22.60;42.10
8188;DHT22;4135;49.184;9.722;2023-02-28T09:02:08;22.70;42.00
8188;DHT22;4135;49.184;9.722;2023-02-28T09:04:38;22.80;42.00
8188;DHT22;4135;49.184;9.722;2023-02-28T09:07:07;22.90;42.00
8188;DHT22;4135;49.184;9.722;2023-02-28T09:09:37;22.90;42.10
8188;DHT22;4135;49.184;9.722;2023-02-28T09:12:07;23.10;42.20
8188;DHT22;4135;49.184;9.722;2023-02-28T09:14:36;23.20;42.00
8188;DHT22;4135;49.184;9.722;2023-02-28T09:17:06;23.20;41.60
8188;DHT22;4135;49.184;9.722;2023-02-28T09:19:35;23.30;41.20
8188;DHT22;4135;49.184;9.722;2023-02-28T09:22:06;23.40;41.20
8188;DHT22;4135;49.184;9.722;2023-02-28T09:24:36;23.50;41.10
8188;DHT22;4135;49.184;9.722;2023-02-28T09:27:06;23.50;40.80
8188;DHT22;4135;49.184;9.722;2023-02-28T09:29:36;23.50;40.10
8188;DHT22;4135;49.184;9.722;2023-02-28T09:32:05;23.60;40.10
8188;DHT22;4135;49.184;9.722;2023-02-28T09:34:37;23.60;40.10
8188;DHT22;4135;49.184;9.722;2023-02-28T09:37:07;23.70;40.00
8188;DHT22;4135;49.184;9.722;2023-02-28T09:39:36;23.80;39.90
8188;DHT22;4135;49.184;9.722;2023-02-28T09:42:14;23.90;39.80
8188;DHT22;4135;49.184;9.722;2023-02-28T09:44:47;23.90;39.60
8188;DHT22;4135;49.184;9.722;2023-02-28T09:47:32;23.90;39.60
8188;DHT22;4135;49.184;9.722;2023-02-28T09:50:41;24.00;39.40
8188;DHT22;4135;49.184;9.722;2023-02-28T09:53:31;24.00;39.40
8188;DHT22;4135;49.184;9.722;2023-02-28T09:56:13;24.10;39.40
8188;DHT22;4135;49.184;9.722;2023-02-28T09:59:38;24.10;39.30
8188;DHT22;4135;49.184;9.722;2023-02-28T10:02:00;24.10;39.20
8188;DHT22;4135;49.184;9.722;2023-02-28T10:04:59;24.20;39.20
8188;DHT22;4135;49.184;9.722;2023-02-28T10:16:29;24.30;39.10
8188;DHT22;4135;49.184;9.722;2023-02-28T10:19:11;24.30;39.10
8188;DHT22;4135;49.184;9.722;2023-02-28T10:21:47;24.30;39.10
8188;DHT22;4135;49.184;9.722;2023-02-28T10:24:32;24.40;39.20
8188;DHT22;4135;49.184;9.722;2023-02-28T10:29:43;24.30;39.10
8188;DHT22;4135;49.184;9.722;2023-02-28T10:32:19;24.30;39.10
8188;DHT22;4135;49.184;9.722;2023-02-28T10:37:40;24.40;39.20
8188;DHT22;4135;49.184;9.722;2023-02-28T10:45:26;24.30;39.10
8188;DHT22;4135;49.184;9.722;2023-02-28T10:50:53;24.30;39.10
8188;DHT22;4135;49.184;9.722;2023-02-28T10:53:32;24.30;39.20
8188;DHT22;4135;49.184;9.722;2023-02-28T10:56:12;24.20;39.10
8188;DHT22;4135;49.184;9.722;2023-02-28T11:01:51;24.20;39.10
8188;DHT22;4135;49.184;9.722;2023-02-28T11:06:59;24.10;39.20
8188;DHT22;4135;49.184;9.722;2023-02-28T11:09:33;24.10;39.20
8188;DHT22;4135;49.184;9.722;2023-02-28T11:12:06;24.00;39.10
8188;DHT22;4135;49.184;9.722;2023-02-28T11:14:49;24.00;39.10
8188;DHT22;4135;49.184;9.722;2023-02-28T11:17:24;24.00;39.10
8188;DHT22;4135;49.184;9.722;2023-02-28T11:20:01;24.00;39.10
8188;DHT22;4135;49.184;9.722;2023-02-28T11:22:37;23.90;39.10
8188;DHT22;4135;49.184;9.722;2023-02-28T11:25:24;23.90;39.10
8188;DHT22;4135;49.184;9.722;2023-02-28T11:27:57;23.90;39.10
8188;DHT22;4135;49.184;9.722;2023-02-28T11:30:36;23.80;39.00
8188;DHT22;4135;49.184;9.722;2023-02-28T11:33:27;23.80;39.10
8188;DHT22;4135;49.184;9.722;2023-02-28T11:36:03;23.80;39.10
8188;DHT22;4135;49.184;9.722;2023-02-28T11:38:34;23.80;39.10
8188;DHT22;4135;49.184;9.722;2023-02-28T11:41:22;23.80;39.10
8188;DHT22;4135;49.184;9.722;2023-02-28T11:47:09;23.70;39.20
8188;DHT22;4135;49.184;9.722;2023-02-28T11:55:19;23.60;39.10
8188;DHT22;4135;49.184;9.722;2023-02-28T11:58:17;23.60;39.10
8188;DHT22;4135;49.184;9.722;2023-02-28T12:03:45;23.50;39.10
8188;DHT22;4135;49.184;9.722;2023-02-28T12:09:04;23.50;39.10
8188;DHT22;4135;49.184;9.722;2023-02-28T12:11:56;23.50;39.10
8188;DHT22;4135;49.184;9.722;2023-02-28T12:20:22;23.40;39.10
8188;DHT22;4135;49.184;9.722;2023-02-28T12:28:46;23.40;39.60
8188;DHT22;4135;49.184;9.722;2023-02-28T12:31:24;23.50;39.90
8188;DHT22;4135;49.184;9.722;2023-02-28T12:33:59;23.50;39.90
8188;DHT22;4135;49.184;9.722;2023-02-28T12:36:30;23.60;40.00
8188;DHT22;4135;49.184;9.722;2023-02-28T12:39:08;23.60;40.10
8188;DHT22;4135;49.184;9.722;2023-02-28T12:41:47;23.60;40.10
8188;DHT22;4135;49.184;9.722;2023-02-28T12:47:00;23.70;40.30
8188;DHT22;4135;49.184;9.722;2023-02-28T12:49:36;23.70;40.40
8188;DHT22;4135;49.184;9.722;2023-02-28T12:52:06;23.70;40.40
8188;DHT22;4135;49.184;9.722;2023-02-28T12:54:47;23.70;40.50
8188;DHT22;4135;49.184;9.722;2023-02-28T12:57:33;23.70;40.50
8188;DHT22;4135;49.184;9.722;2023-02-28T13:00:15;23.70;40.60
8188;DHT22;4135;49.184;9.722;2023-02-28T13:05:49;23.90;40.70
8188;DHT22;4135;49.184;9.722;2023-02-28T13:11:39;24.10;40.80
8188;DHT22;4135;49.184;9.722;2023-02-28T13:14:29;24.20;40.80
8188;DHT22;4135;49.184;9.722;2023-02-28T13:19:45;24.40;40.80
8188;DHT22;4135;49.184;9.722;2023-02-28T13:22:35;24.40;40.70
8188;DHT22;4135;49.184;9.722;2023-02-28T13:27:54;24.60;40.80
8188;DHT22;4135;49.184;9.722;2023-02-28T13:38:42;24.70;41.00
8188;DHT22;4135;49.184;9.722;2023-02-28T13:44:08;24.80;41.10
8188;DHT22;4135;49.184;9.722;2023-02-28T13:49:28;24.80;41.20
8188;DHT22;4135;49.184;9.722;2023-02-28T13:58:10;24.90;41.30
8188;DHT22;4135;49.184;9.722;2023-02-28T14:09:05;24.90;41.40
8188;DHT22;4135;49.184;9.722;2023-02-28T14:11:39;24.90;41.50
8188;DHT22;4135;49.184;9.722;2023-02-28T14:14:53;24.90;41.30
8188;DHT22;4135;49.184;9.722;2023-02-28T14:16:59;25.00;41.30
8188;DHT22;4135;49.184;9.722;2023-02-28T14:19:30;25.10;41.30
8188;DHT22;4135;49.184;9.722;2023-02-28T14:25:23;25.10;41.00
8188;DHT22;4135;49.184;9.722;2023-02-28T14:31:40;25.20;40.90
8188;DHT22;4135;49.184;9.722;2023-02-28T14:34:35;25.30;40.90
8188;DHT22;4135;49.184;9.722;2023-02-28T14:37:05;25.30;40.80
8188;DHT22;4135;49.184;9.722;2023-02-28T14:39:41;25.20;40.70
8188;DHT22;4135;49.184;9.722;2023-02-28T14:42:32;25.40;40.70
8188;DHT22;4135;49.184;9.722;2023-02-28T14:45:03;25.40;40.70
8188;DHT22;4135;49.184;9.722;2023-02-28T14:47:35;25.50;40.70
8188;DHT22;4135;49.184;9.722;2023-02-28T14:50:05;25.50;40.70
8188;DHT22;4135;49.184;9.722;2023-02-28T14:52:38;25.40;40.60
8188;DHT22;4135;49.184;9.722;2023-02-28T14:55:14;25.40;40.60
8188;DHT22;4135;49.184;9.722;2023-02-28T14:57:59;25.40;40.60
8188;DHT22;4135;49.184;9.722;2023-02-28T15:00:31;25.40;40.60
8188;DHT22;4135;49.184;9.722;2023-02-28T15:03:19;25.40;40.60
8188;DHT22;4135;49.184;9.722;2023-02-28T15:05:58;25.40;40.60
8188;DHT22;4135;49.184;9.722;2023-02-28T15:08:29;25.40;40.70
8188;DHT22;4135;49.184;9.722;2023-02-28T15:11:01;25.40;40.90
8188;DHT22;4135;49.184;9.722;2023-02-28T15:13:41;25.40;41.00
8188;DHT22;4135;49.184;9.722;2023-02-28T15:16:16;25.30;41.10
8188;DHT22;4135;49.184;9.722;2023-02-28T15:18:55;25.30;41.10
8188;DHT22;4135;49.184;9.722;2023-02-28T15:21:33;25.30;41.10
8188;DHT22;4135;49.184;9.722;2023-02-28T15:26:40;25.20;40.70
8188;DHT22;4135;49.184;9.722;2023-02-28T15:29:19;25.20;40.50
8188;DHT22;4135;49.184;9.722;2023-02-28T15:31:55;25.10;40.10
8188;DHT22;4135;49.184;9.722;2023-02-28T15:34:42;25.10;39.80
8188;DHT22;4135;49.184;9.722;2023-02-28T15:37:38;25.00;39.40
8188;DHT22;4135;49.184;9.722;2023-02-28T15:40:18;25.00;39.10
8188;DHT22;4135;49.184;9.722;2023-02-28T15:43:33;24.90;38.80
8188;DHT22;4135;49.184;9.722;2023-02-28T15:46:08;24.90;38.60
8188;DHT22;4135;49.184;9.722;2023-02-28T15:48:54;24.90;38.50
8188;DHT22;4135;49.184;9.722;2023-02-28T15:51:34;24.80;38.50
8188;DHT22;4135;49.184;9.722;2023-02-28T15:54:08;24.80;38.60
8188;DHT22;4135;49.184;9.722;2023-02-28T15:56:46;24.80;38.50
8188;DHT22;4135;49.184;9.722;2023-02-28T15:59:27;24.70;38.10
8188;DHT22;4135;49.184;9.722;2023-02-28T16:02:18;24.70;38.20
8188;DHT22;4135;49.184;9.722;2023-02-28T16:07:42;24.70;39.00
8188;DHT22;4135;49.184;9.722;2023-02-28T16:10:13;24.80;39.30
8188;DHT22;4135;49.184;9.722;2023-02-28T16:12:44;24.70;39.30
8188;DHT22;4135;49.184;9.722;2023-02-28T16:15:32;24.70;39.40
8188;DHT22;4135;49.184;9.722;2023-02-28T16:18:04;24.70;39.60
8188;DHT22;4135;49.184;9.722;2023-02-28T16:20:34;24.70;39.80
8188;DHT22;4135;49.184;9.722;2023-02-28T16:23:03;24.70;39.80
8188;DHT22;4135;49.184;9.722;2023-02-28T16:25:39;24.70;39.90
8188;DHT22;4135;49.184;9.722;2023-02-28T16:28:24;24.70;40.00
8188;DHT22;4135;49.184;9.722;2023-02-28T16:30:54;24.70;40.00
8188;DHT22;4135;49.184;9.722;2023-02-28T16:33:24;24.70;40.10
8188;DHT22;4135;49.184;9.722;2023-02-28T16:35:53;24.70;40.10
8188;DHT22;4135;49.184;9.722;2023-02-28T16:38:23;24.70;40.20
8188;DHT22;4135;49.184;9.722;2023-02-28T16:40:56;24.60;39.80
8188;DHT22;4135;49.184;9.722;2023-02-28T16:43:27;24.60;39.60
8188;DHT22;4135;49.184;9.722;2023-02-28T16:45:57;24.60;39.70
8188;DHT22;4135;49.184;9.722;2023-02-28T16:48:27;24.60;39.90
8188;DHT22;4135;49.184;9.722;2023-02-28T16:50:57;24.50;39.90
8188;DHT22;4135;49.184;9.722;2023-02-28T16:53:26;24.50;40.00
8188;DHT22;4135;49.184;9.722;2023-02-28T16:55:56;24.50;40.00
8188;DHT22;4135;49.184;9.722;2023-02-28T16:58:26;24.50;40.00
8188;DHT22;4135;49.184;9.722;2023-02-28T17:00:56;24.50;40.00
8188;DHT22;4135;49.184;9.722;2023-02-28T17:03:27;24.40;40.10
8188;DHT22;4135;49.184;9.722;2023-02-28T17:05:57;24.50;40.10
8188;DHT22;4135;49.184;9.722;2023-02-28T17:08:26;24.50;40.10
8188;DHT22;4135;49.184;9.722;2023-02-28T17:10:58;24.40;39.90
8188;DHT22;4135;49.184;9.722;2023-02-28T17:13:28;24.40;40.00
8188;DHT22;4135;49.184;9.722;2023-02-28T17:15:57;24.40;40.20
8188;DHT22;4135;49.184;9.722;2023-02-28T17:18:27;24.40;40.20
8188;DHT22;4135;49.184;9.722;2023-02-28T17:21:02;24.40;40.20
8188;DHT22;4135;49.184;9.722;2023-02-28T17:23:32;24.40;40.20
8188;DHT22;4135;49.184;9.722;2023-02-28T17:26:02;24.40;40.20
8188;DHT22;4135;49.184;9.722;2023-02-28T17:28:34;24.40;40.10
8188;DHT22;4135;49.184;9.722;2023-02-28T17:31:04;24.40;40.10
8188;DHT22;4135;49.184;9.722;2023-02-28T17:33:33;24.40;40.10
8188;DHT22;4135;49.184;9.722;2023-02-28T17:36:03;24.40;40.00
8188;DHT22;4135;49.184;9.722;2023-02-28T17:38:33;24.40;40.10
8188;DHT22;4135;49.184;9.722;2023-02-28T17:41:02;24.40;40.20
8188;DHT22;4135;49.184;9.722;2023-02-28T17:43:32;24.40;40.20
8188;DHT22;4135;49.184;9.722;2023-02-28T17:46:01;24.50;39.90
8188;DHT22;4135;49.184;9.722;2023-02-28T17:48:32;24.40;39.20
8188;DHT22;4135;49.184;9.722;2023-02-28T17:51:02;24.30;38.80
8188;DHT22;4135;49.184;9.722;2023-02-28T17:53:31;24.30;38.80
8188;DHT22;4135;49.184;9.722;2023-02-28T17:56:01;24.40;39.30
8188;DHT22;4135;49.184;9.722;2023-02-28T17:58:30;24.40;39.40
8188;DHT22;4135;49.184;9.722;2023-02-28T18:01:03;24.40;39.20
8188;DHT22;4135;49.184;9.722;2023-02-28T18:03:32;24.40;38.80
8188;DHT22;4135;49.184;9.722;2023-02-28T18:06:02;24.30;38.40
8188;DHT22;4135;49.184;9.722;2023-02-28T18:08:32;24.30;38.70
8188;DHT22;4135;49.184;9.722;2023-02-28T18:11:04;24.30;38.80
8188;DHT22;4135;49.184;9.722;2023-02-28T18:13:33;24.40;38.80
8188;DHT22;4135;49.184;9.722;2023-02-28T18:16:03;24.30;38.80
8188;DHT22;4135;49.184;9.722;2023-02-28T18:18:33;24.40;39.00
8188;DHT22;4135;49.184;9.722;2023-02-28T18:21:07;24.50;39.10
8188;DHT22;4135;49.184;9.722;2023-02-28T18:23:38;24.60;39.10
8188;DHT22;4135;49.184;9.722;2023-02-28T18:26:17;24.80;39.30
8188;DHT22;4135;49.184;9.722;2023-02-28T18:28:47;24.90;39.30
8188;DHT22;4135;49.184;9.722;2023-02-28T18:31:19;25.00;39.30
8188;DHT22;4135;49.184;9.722;2023-02-28T18:33:50;25.10;39.30
8188;DHT22;4135;49.184;9.722;2023-02-28T18:36:20;25.10;39.20
8188;DHT22;4135;49.184;9.722;2023-02-28T18:38:50;25.10;39.10
8188;DHT22;4135;49.184;9.722;2023-02-28T18:41:20;25.20;39.30
8188;DHT22;4135;49.184;9.722;2023-02-28T18:43:50;25.20;39.20
8188;DHT22;4135;49.184;9.722;2023-02-28T18:46:20;25.20;39.20
8188;DHT22;4135;49.184;9.722;2023-02-28T18:48:50;25.30;39.30
8188;DHT22;4135;49.184;9.722;2023-02-28T18:51:23;25.30;39.30
8188;DHT22;4135;49.184;9.722;2023-02-28T18:53:53;25.30;39.40
8188;DHT22;4135;49.184;9.722;2023-02-28T18:56:24;25.30;39.40